Погода METAR - Новосибирск (Толмачево)

Код аэропорта ICAO:
Кемерово, Абакан, Красноярск, Новосибирск
Код METAR: UNNT 262000Z 23004MPS CAVOK 05/M03 Q1026 R25/090070 R16/090070 NOSIG RMK QFE760/1013
TAF UNNT 261700Z 2618/2718 22003G08MPS CAVOK 
     BECMG 2700/2703 27006G13MPS 
     BECMG 2712/2714 22003G08MPS
       

Погода - Сейчас

Время: 2019-05-27 03:00, местное
Направление ветра: Юго-запад (230°)
Скорость ветра: 4 м/с
Видимость: более 10км, отсутствие осадков и облаков
Температура: 5°C
Точка росы: -3°C
Атмосферное давление: 1026 гПа

Архив погоды

Время, местное Направление Скорость, м/с Температура, °C Точка росы, °C Давление, гПа
2019-05-27 03:00 ЮЗ (230°) 4 5 -3 1026
2019-05-25 15:00 Ю (170°) 11 25 5 1008
2019-05-25 07:30 Ю (180°) 6 15 3 1011
2019-05-23 13:30 З (280°) 7, порывы до 14 13 1 1011
2019-05-23 05:00 ЗЮЗ (260°) 4 8 3 1009
2019-05-21 18:00 З (270°) 10 12 5 1001
2019-05-21 16:30 З (270°) 6 13 5 1000
2019-05-21 15:00 ЗЮЗ (250°) 5 12 6 1001
2019-05-21 11:30 ЮЗ (210°) 5 11 4 1001
2019-05-21 05:00 Ю (190°) 1 6 4 1000
2019-05-19 14:00 ЗЮЗ (250°) 9 22 2 1001
2019-05-19 13:30 ЮЗ (220°) 8, порывы до 13 21 2 1001
2019-05-17 02:00 ЗЮЗ (240°) 2 0 -7 1023
2019-05-16 05:30 СЗ (310°) 3 2 -2 1022
2019-05-14 21:00 Ю (180°) 3 6 -5 1010
2019-05-11 17:30 З (280°) 4, порывы до 9 20 -5 1019
2019-05-11 01:00 Штиль 0 3 -7 1028
2019-05-08 00:00 ЮЗ (220°) 2 17 1 1021
2019-05-06 22:30 СВ (30°) 2 15 2 1025
2019-05-04 15:00 З (270°) 3 17 -7 1028
2019-05-03 12:00 ЗЮЗ (250°) 2 10 -9 1030
2019-05-03 03:30 ЮЮВ (160°) 1 -2 -6 1027
2019-05-01 09:30 З (280°) 8 -1 -7 1014
2019-04-30 23:30 СЗ (300°) 9 5 4 1000
2019-04-28 10:00 З (270°) 9 3 -5 1015
2019-04-28 09:00 З (270°) 9 2 -3 1015
2019-04-24 10:30 ЮЗ (230°) 3 11 -5 1015
2019-04-20 11:30 СВ (30°) 2 4 -8 1015
2019-04-19 16:00 ЗЮЗ (250°) 4 4 -9 1025
2019-04-18 19:30 З (280°) 11 -6 -10 1019
2019-04-17 16:30 ЮЗ (210°) 8 7 -4 1005
2019-04-17 12:30 ЮЗ (210°) 8 6 -6 1007
2019-04-17 05:30 Ю (190°) 4 -3 -8 1010
2019-04-16 15:00 З (280°) 4 6 -13 1010
2019-04-15 19:00 СВ (40°) 5 1 -11 1011
2019-04-13 04:30 ЮЗ (220°) 4 6 -3 1015
2019-04-12 18:00 ЗЮЗ (250°) 8 14 -2 1021
2019-04-12 10:30 ЮЗ (230°) 5 10 -2 1024
2019-04-11 10:30 Ю (190°) 3 3 -9 1029
2019-04-10 02:00 ЗСЗ (290°) 2 -1 -5 1017
2019-04-09 05:00 ЮЮВ (150°) 3 -3 -7 1027
2019-04-08 05:00 ЗЮЗ (250°) 2 -4 -9 1033
2019-04-07 19:30 ССЗ (330°) 3 2 -9 1029
2019-04-07 19:00 ССЗ (340°) 4 3 -9 1029
2019-04-07 11:30 ССЗ (340°) 6 2 -7 1026
2019-04-07 06:30 СЗ (320°) 3 0 -1 1022
2019-04-06 23:00 ЗЮЗ (250°) 4 2 -7 1021
2019-04-06 13:00 ССЗ (340°) 5 9 -9 1019